首页
METAR-TAF:

METAR-TAF

机场 :

贝鲁特, 黎巴嫩

纬度: 33-49N, 经度: 035-29E, 海拔: 29米

当前天气观测

该预报发布于25分钟前的09:00 UTC
风速8节,风向西转西南
温度 30°C
湿度 62%
气压 1009 hPa
能見度: 8000

METAR: OLBA 120900Z 25008KT 8000 NSC 30/22 Q1009 NOSIG

时间: 12:25 (09:25 UTC)

预报

该预报发布于5小时和25分钟前的04:00 UTC
预报有效从12日的 06点(UTC)到 13日的 12点(UTC)
风速10节,风向西转西南
能见度10公里或以上
散云层高于2600英尺
成为
从 12日的 09点(UTC)到 12日的 12点(UTC)
风速5节,风向西
成为
从 12日的 21点(UTC)到 12日的 24点(UTC)
风速5节,风向南转南东
少量云层高于2700英尺
成为
从 13日的 03点(UTC)到 13日的 06点(UTC)
风速10节,风向
能見度: 8000
成为
从 13日的 09点(UTC)到 13日的 12点(UTC)
风速10节,风向西南
能见度10公里或以上

TAF: OLBA 120400Z 1206/1312 25010KT 9999 SCT026 BECMG 1209/1212 26010KT 26005KT BECMG 1221/1224 16005KT FEW027 BECMG 1303/1306 18010KT 8000 BECMG 1309/1312 23010KT 9999

超过4000个机场的气象观测和天气预报(METAR&TAF报告)。

可查询的气象台以黄色和红色小点在地图上表示。

将鼠标移到小点上方,可查看气象台名称。

然后点击查看天气观测和预报。

如需切换地图:点击带黑十字的绿色按钮放大地图;点击带横线的绿色按钮缩小地图;或者点击绿色箭头查看邻近地区的地图。


METAR-TAF: